AFL150 UUEE-EDDF
Flight info
| Callsign | AFL150 |
|---|---|
| Flight time | 2h 55m |
| Altitude | 34000 |
| Route | LIDRI3J LIDRI T781 REPNU N858 VEPIS Y219 LAPKI N869 OSMUS T117 PEPAR DCT SOTET/N0445F340 DCT GOVEN DCT TADUV T178 LASTO/N0435F300 T178 ROBEL/N0393F240 T178 KERAX KERAX5A |
| Aircraft | A321/M-SDE3FGHIRWY/LB1 |
Departure
| Time | 2026-05-04 07:12 |
|---|---|
| Airport | Sheremetyevo International Airport (UUEE) |
Arrival
| Time | 2026-05-04 10:08 |
|---|---|
| Airport | Frankfurt Main Airport (EDDF) |
| Time | Latitude | Longitude | Altitude | Speed | Heading |
|---|---|---|---|---|---|
| 2026-05-04 07:12 | 55.96614 | 37.38314 | 1292 ft | 181 kts | 251° |
| 2026-05-04 07:12 | 55.96088 | 37.36267 | 1960 ft | 184 kts | 238° |
| 2026-05-04 07:12 | 55.95388 | 37.34362 | 2626 ft | 189 kts | 236° |
| 2026-05-04 07:12 | 55.94619 | 37.32375 | 3082 ft | 202 kts | 236° |
| 2026-05-04 07:13 | 55.93795 | 37.30245 | 3285 ft | 221 kts | 236° |
| 2026-05-04 07:13 | 55.92899 | 37.27921 | 3593 ft | 236 kts | 237° |
| 2026-05-04 07:13 | 55.91946 | 37.25447 | 4056 ft | 244 kts | 237° |
| 2026-05-04 07:14 | 55.88355 | 37.15189 | 6426 ft | 254 kts | 248° |
| 2026-05-04 07:14 | 55.87639 | 37.12250 | 6776 ft | 266 kts | 249° |
| 2026-05-04 07:15 | 55.86906 | 37.09183 | 6915 ft | 268 kts | 250° |
| 2026-05-04 07:15 | 55.86494 | 37.06032 | 6905 ft | 264 kts | 269° |
| 2026-05-04 07:15 | 55.86734 | 37.02784 | 7070 ft | 268 kts | 285° |
| 2026-05-04 07:15 | 55.87256 | 36.99609 | 7621 ft | 268 kts | 287° |
| 2026-05-04 07:16 | 55.87785 | 36.96474 | 7866 ft | 267 kts | 287° |
| 2026-05-04 07:16 | 55.88314 | 36.93321 | 7891 ft | 267 kts | 287° |
| 2026-05-04 07:16 | 55.88837 | 36.90165 | 7906 ft | 266 kts | 287° |
| 2026-05-04 07:16 | 55.89356 | 36.87016 | 7879 ft | 265 kts | 287° |
| 2026-05-04 07:17 | 55.89871 | 36.83858 | 7877 ft | 266 kts | 287° |
| 2026-05-04 07:17 | 55.90386 | 36.80695 | 7910 ft | 266 kts | 287° |
| 2026-05-04 07:17 | 55.90853 | 36.77524 | 7889 ft | 269 kts | 280° |
| 2026-05-04 07:17 | 55.90887 | 36.74153 | 8253 ft | 277 kts | 264° |
| 2026-05-04 07:18 | 55.90498 | 36.70832 | 9040 ft | 275 kts | 259° |
| 2026-05-04 07:18 | 55.90036 | 36.67543 | 9647 ft | 277 kts | 259° |
| 2026-05-04 07:18 | 55.89563 | 36.64206 | 10240 ft | 280 kts | 259° |
| 2026-05-04 07:18 | 55.89086 | 36.60826 | 10555 ft | 293 kts | 259° |
| 2026-05-04 07:19 | 55.88581 | 36.57233 | 10821 ft | 307 kts | 259° |
| 2026-05-04 07:19 | 55.88052 | 36.53482 | 11096 ft | 320 kts | 259° |
| 2026-05-04 07:19 | 55.87501 | 36.49596 | 11561 ft | 326 kts | 259° |
| 2026-05-04 07:19 | 55.86943 | 36.45685 | 12164 ft | 327 kts | 259° |
| 2026-05-04 07:20 | 55.86428 | 36.41750 | 12721 ft | 329 kts | 261° |
| 2026-05-04 07:20 | 55.85949 | 36.37814 | 13246 ft | 332 kts | 261° |
| 2026-05-04 07:20 | 55.85464 | 36.33803 | 13769 ft | 334 kts | 261° |
| 2026-05-04 07:20 | 55.84972 | 36.29731 | 14296 ft | 337 kts | 260° |
| 2026-05-04 07:22 | 55.81375 | 36.00676 | 17685 ft | 353 kts | 259° |
| 2026-05-04 07:22 | 55.80838 | 35.96464 | 18111 ft | 356 kts | 259° |
| 2026-05-04 07:23 | 55.80288 | 35.92172 | 18531 ft | 359 kts | 259° |
| 2026-05-04 07:23 | 55.79732 | 35.87845 | 18968 ft | 361 kts | 259° |
| 2026-05-04 07:23 | 55.79170 | 35.83479 | 19413 ft | 363 kts | 259° |
| 2026-05-04 07:23 | 55.78607 | 35.79101 | 19805 ft | 366 kts | 259° |
| 2026-05-04 07:24 | 55.78047 | 35.74742 | 20225 ft | 368 kts | 259° |
| 2026-05-04 07:24 | 55.77475 | 35.70318 | 20598 ft | 372 kts | 259° |
| 2026-05-04 07:24 | 55.76894 | 35.65837 | 20993 ft | 374 kts | 259° |
| 2026-05-04 07:24 | 55.76304 | 35.61314 | 21425 ft | 375 kts | 260° |
| 2026-05-04 07:25 | 55.75753 | 35.56853 | 21810 ft | 377 kts | 262° |
| 2026-05-04 07:26 | 55.74036 | 35.24042 | 24327 ft | 391 kts | 267° |
| 2026-05-04 07:27 | 55.73822 | 35.19232 | 24678 ft | 393 kts | 267° |
| 2026-05-04 07:27 | 55.73607 | 35.14451 | 25014 ft | 395 kts | 267° |
| 2026-05-04 07:27 | 55.73383 | 35.09582 | 25341 ft | 397 kts | 267° |
| 2026-05-04 07:27 | 55.73159 | 35.04722 | 25645 ft | 399 kts | 267° |
| 2026-05-04 07:28 | 55.72931 | 34.99785 | 25953 ft | 401 kts | 267° |
| 2026-05-04 07:28 | 55.72707 | 34.94915 | 26228 ft | 404 kts | 267° |
| 2026-05-04 07:28 | 55.72478 | 34.89949 | 26513 ft | 406 kts | 268° |
| 2026-05-04 07:28 | 55.72247 | 34.84978 | 26818 ft | 408 kts | 267° |
| 2026-05-04 07:29 | 55.72012 | 34.79925 | 27132 ft | 409 kts | 268° |
| 2026-05-04 07:29 | 55.71776 | 34.74937 | 27421 ft | 411 kts | 267° |
| 2026-05-04 07:29 | 55.71534 | 34.69884 | 27697 ft | 412 kts | 267° |
| 2026-05-04 07:29 | 55.71272 | 34.64880 | 27947 ft | 415 kts | 265° |
| 2026-05-04 07:30 | 55.70798 | 34.59779 | 28189 ft | 419 kts | 261° |
| 2026-05-04 07:30 | 55.70085 | 34.54789 | 28452 ft | 422 kts | 256° |
| 2026-05-04 07:30 | 55.69154 | 34.49892 | 28740 ft | 424 kts | 253° |
| 2026-05-04 07:30 | 55.68148 | 34.44981 | 28984 ft | 426 kts | 253° |
| 2026-05-04 07:31 | 55.67131 | 34.40077 | 29196 ft | 428 kts | 253° |
| 2026-05-04 07:31 | 55.66107 | 34.35150 | 29420 ft | 429 kts | 253° |
| 2026-05-04 07:33 | 55.58891 | 34.00549 | 31444 ft | 428 kts | 252° |
| 2026-05-04 07:33 | 55.57861 | 33.95653 | 31701 ft | 426 kts | 252° |
| 2026-05-04 07:33 | 55.56840 | 33.90815 | 31971 ft | 426 kts | 252° |
| 2026-05-04 07:33 | 55.55808 | 33.85924 | 32227 ft | 426 kts | 252° |
| 2026-05-04 07:34 | 55.54775 | 33.81041 | 32480 ft | 426 kts | 252° |
| 2026-05-04 07:34 | 55.53738 | 33.76160 | 32677 ft | 427 kts | 252° |
| 2026-05-04 07:34 | 55.52696 | 33.71270 | 32852 ft | 427 kts | 252° |
| 2026-05-04 07:34 | 55.51675 | 33.66351 | 33043 ft | 427 kts | 255° |
| 2026-05-04 07:35 | 55.50796 | 33.61395 | 33215 ft | 427 kts | 257° |
| 2026-05-04 07:35 | 55.50039 | 33.56331 | 33426 ft | 427 kts | 259° |
| 2026-05-04 07:35 | 55.49314 | 33.51347 | 33619 ft | 427 kts | 259° |
| 2026-05-04 07:35 | 55.48576 | 33.46269 | 33751 ft | 427 kts | 259° |
| 2026-05-04 07:36 | 55.47845 | 33.41239 | 33908 ft | 428 kts | 259° |
| 2026-05-04 07:36 | 55.47103 | 33.36165 | 33897 ft | 429 kts | 259° |
| 2026-05-04 07:38 | 55.41105 | 32.95645 | 33900 ft | 429 kts | 258° |
| 2026-05-04 07:38 | 55.39586 | 32.85556 | 33907 ft | 430 kts | 258° |
| 2026-05-04 07:39 | 55.38060 | 32.75487 | 33910 ft | 429 kts | 258° |
| 2026-05-04 07:39 | 55.36517 | 32.65354 | 33911 ft | 429 kts | 258° |
| 2026-05-04 07:40 | 55.34967 | 32.55253 | 33901 ft | 429 kts | 258° |
| 2026-05-04 07:40 | 55.33408 | 32.45154 | 33906 ft | 430 kts | 257° |
| 2026-05-04 07:41 | 55.31842 | 32.35073 | 33903 ft | 429 kts | 257° |
| 2026-05-04 07:41 | 55.30282 | 32.25057 | 33908 ft | 430 kts | 257° |
| 2026-05-04 07:42 | 55.28700 | 32.14972 | 33902 ft | 431 kts | 257° |
| 2026-05-04 07:42 | 55.27107 | 32.04894 | 33922 ft | 431 kts | 257° |
| 2026-05-04 07:43 | 55.25509 | 31.94838 | 33906 ft | 431 kts | 256° |
| 2026-05-04 07:43 | 55.23896 | 31.84767 | 33918 ft | 431 kts | 257° |
| 2026-05-04 07:44 | 55.22279 | 31.74718 | 33911 ft | 430 kts | 256° |
| 2026-05-04 07:44 | 55.20659 | 31.64706 | 33891 ft | 431 kts | 256° |
| 2026-05-04 07:45 | 55.19028 | 31.54680 | 33909 ft | 430 kts | 256° |
| 2026-05-04 07:45 | 55.17388 | 31.44673 | 33901 ft | 430 kts | 256° |
| 2026-05-04 07:46 | 55.15731 | 31.34613 | 33912 ft | 430 kts | 256° |
| 2026-05-04 07:46 | 55.14086 | 31.24646 | 33894 ft | 429 kts | 255° |
| 2026-05-04 07:47 | 55.12429 | 31.14676 | 33904 ft | 430 kts | 255° |
| 2026-05-04 07:49 | 55.03561 | 30.76156 | 33913 ft | 432 kts | 246° |
| 2026-05-04 07:49 | 55.00982 | 30.66772 | 33921 ft | 432 kts | 246° |
| 2026-05-04 07:50 | 54.98385 | 30.57359 | 33912 ft | 433 kts | 246° |
| 2026-05-04 07:50 | 54.95787 | 30.47978 | 33926 ft | 432 kts | 246° |
| 2026-05-04 07:51 | 54.93189 | 30.38632 | 33932 ft | 433 kts | 246° |
| 2026-05-04 07:51 | 54.90567 | 30.29231 | 33916 ft | 434 kts | 245° |
| 2026-05-04 07:52 | 54.87924 | 30.19845 | 33930 ft | 435 kts | 245° |
| 2026-05-04 07:52 | 54.85279 | 30.10518 | 33916 ft | 434 kts | 245° |
| 2026-05-04 07:54 | 54.74655 | 29.73154 | 33915 ft | 435 kts | 245° |
| 2026-05-04 07:55 | 54.71981 | 29.63820 | 33917 ft | 435 kts | 245° |
| 2026-05-04 07:55 | 54.69305 | 29.54524 | 33928 ft | 435 kts | 245° |
| 2026-05-04 07:56 | 54.66625 | 29.45201 | 33923 ft | 433 kts | 246° |
| 2026-05-04 07:56 | 54.64038 | 29.35881 | 33916 ft | 436 kts | 246° |
| 2026-05-04 07:57 | 54.61434 | 29.26471 | 33918 ft | 435 kts | 245° |
| 2026-05-04 07:57 | 54.58837 | 29.17139 | 33919 ft | 435 kts | 245° |
| 2026-05-04 07:58 | 54.56201 | 29.07711 | 33925 ft | 435 kts | 245° |
| 2026-05-04 07:58 | 54.53573 | 28.98361 | 33925 ft | 436 kts | 245° |
| 2026-05-04 07:59 | 54.50937 | 28.89020 | 33925 ft | 435 kts | 245° |
| 2026-05-04 07:59 | 54.48331 | 28.79715 | 33924 ft | 436 kts | 247° |
| 2026-05-04 08:00 | 54.45915 | 28.70235 | 33926 ft | 436 kts | 248° |
| 2026-05-04 08:02 | 54.36230 | 28.32368 | 33929 ft | 436 kts | 247° |
| 2026-05-04 08:02 | 54.33804 | 28.22950 | 33928 ft | 434 kts | 247° |
| 2026-05-04 08:03 | 54.31361 | 28.13514 | 33930 ft | 436 kts | 247° |
| 2026-05-04 08:03 | 54.28906 | 28.04088 | 33927 ft | 434 kts | 247° |
| 2026-05-04 08:04 | 54.26438 | 27.94653 | 33931 ft | 434 kts | 247° |
| 2026-05-04 08:04 | 54.23975 | 27.85269 | 33939 ft | 435 kts | 247° |
| 2026-05-04 08:05 | 54.21514 | 27.75935 | 33927 ft | 435 kts | 246° |
| 2026-05-04 08:05 | 54.19035 | 27.66572 | 33932 ft | 434 kts | 246° |
| 2026-05-04 08:06 | 54.16542 | 27.57182 | 33923 ft | 436 kts | 246° |
| 2026-05-04 08:06 | 54.14036 | 27.47789 | 33931 ft | 436 kts | 246° |
| 2026-05-04 08:08 | 54.02790 | 27.11485 | 33928 ft | 436 kts | 240° |
| 2026-05-04 08:11 | 53.90113 | 26.70854 | 33954 ft | 435 kts | 252° |
| 2026-05-04 08:11 | 53.87944 | 26.55998 | 33946 ft | 434 kts | 261° |
| 2026-05-04 08:12 | 53.87037 | 26.45929 | 33939 ft | 433 kts | 262° |
| 2026-05-04 08:12 | 53.86143 | 26.35928 | 33937 ft | 433 kts | 262° |
| 2026-05-04 08:13 | 53.85232 | 26.25843 | 33942 ft | 433 kts | 261° |
| 2026-05-04 08:13 | 53.84317 | 26.15834 | 33963 ft | 433 kts | 261° |
| 2026-05-04 08:14 | 53.83393 | 26.05808 | 33946 ft | 432 kts | 261° |
| 2026-05-04 08:16 | 53.79612 | 25.65800 | 33948 ft | 432 kts | 261° |
| 2026-05-04 08:16 | 53.78651 | 25.55862 | 33935 ft | 431 kts | 261° |
| 2026-05-04 08:17 | 53.77675 | 25.45837 | 33937 ft | 432 kts | 261° |
| 2026-05-04 08:17 | 53.76701 | 25.35907 | 33937 ft | 433 kts | 261° |
| 2026-05-04 08:19 | 53.74685 | 25.00839 | 33923 ft | 431 kts | 273° |
| 2026-05-04 08:19 | 53.74942 | 24.95876 | 33918 ft | 431 kts | 275° |
| 2026-05-04 08:20 | 53.75569 | 24.85834 | 33932 ft | 431 kts | 276° |
| 2026-05-04 08:20 | 53.76191 | 24.75826 | 33919 ft | 431 kts | 276° |
| 2026-05-04 08:21 | 53.76802 | 24.65794 | 33928 ft | 430 kts | 276° |
| 2026-05-04 08:21 | 53.77401 | 24.55799 | 33920 ft | 429 kts | 276° |
| 2026-05-04 08:22 | 53.77988 | 24.45810 | 33928 ft | 430 kts | 276° |
| 2026-05-04 08:24 | 53.80259 | 24.05851 | 33948 ft | 428 kts | 275° |
| 2026-05-04 08:24 | 53.80809 | 23.95859 | 33955 ft | 428 kts | 274° |
| 2026-05-04 08:25 | 53.81347 | 23.85937 | 33932 ft | 427 kts | 275° |
| 2026-05-04 08:25 | 53.81878 | 23.75961 | 33923 ft | 427 kts | 275° |
| 2026-05-04 08:27 | 53.79894 | 23.36478 | 33921 ft | 425 kts | 255° |
| 2026-05-04 08:28 | 53.78359 | 23.26870 | 33912 ft | 425 kts | 255° |
| 2026-05-04 08:28 | 53.76812 | 23.17237 | 33927 ft | 427 kts | 255° |
| 2026-05-04 08:29 | 53.75264 | 23.07635 | 33921 ft | 425 kts | 255° |
| 2026-05-04 08:31 | 53.68992 | 22.69317 | 33917 ft | 425 kts | 255° |
| 2026-05-04 08:33 | 53.62603 | 22.31138 | 33913 ft | 425 kts | 253° |
| 2026-05-04 08:35 | 53.56115 | 21.93157 | 33910 ft | 424 kts | 253° |
| 2026-05-04 08:35 | 53.54480 | 21.83725 | 33910 ft | 424 kts | 253° |
| 2026-05-04 08:37 | 53.48685 | 21.50694 | 33905 ft | 421 kts | 253° |
| 2026-05-04 08:38 | 53.47022 | 21.41326 | 33909 ft | 421 kts | 253° |
| 2026-05-04 08:38 | 53.45340 | 21.31898 | 33914 ft | 422 kts | 253° |
| 2026-05-04 08:40 | 53.38604 | 20.94578 | 33918 ft | 420 kts | 253° |
| 2026-05-04 08:41 | 53.36891 | 20.85216 | 33919 ft | 421 kts | 253° |
| 2026-05-04 08:41 | 53.35178 | 20.75903 | 33920 ft | 419 kts | 253° |
| 2026-05-04 08:42 | 53.33465 | 20.66642 | 33917 ft | 419 kts | 252° |
| 2026-05-04 08:42 | 53.31755 | 20.57435 | 33908 ft | 418 kts | 252° |
| 2026-05-04 08:43 | 53.30018 | 20.48143 | 33910 ft | 419 kts | 252° |
| 2026-05-04 08:43 | 53.28291 | 20.38943 | 33904 ft | 418 kts | 252° |
| 2026-05-04 08:44 | 53.26555 | 20.29730 | 33908 ft | 418 kts | 252° |
| 2026-05-04 08:46 | 53.19554 | 19.93008 | 33899 ft | 417 kts | 252° |
| 2026-05-04 08:46 | 53.17782 | 19.83838 | 33902 ft | 417 kts | 252° |
| 2026-05-04 08:47 | 53.16003 | 19.74671 | 33899 ft | 416 kts | 251° |
| 2026-05-04 08:47 | 53.14229 | 19.65580 | 33896 ft | 415 kts | 252° |
| 2026-05-04 08:48 | 53.12448 | 19.56505 | 33905 ft | 415 kts | 252° |
| 2026-05-04 08:48 | 53.10664 | 19.47439 | 33903 ft | 414 kts | 252° |
| 2026-05-04 08:49 | 53.08872 | 19.38379 | 33900 ft | 414 kts | 252° |
| 2026-05-04 08:50 | 53.02570 | 19.06791 | 33900 ft | 413 kts | 251° |
| 2026-05-04 08:51 | 53.00762 | 18.97816 | 33896 ft | 413 kts | 251° |
| 2026-05-04 08:51 | 52.98933 | 18.88788 | 34109 ft | 418 kts | 251° |
| 2026-05-04 08:52 | 52.98004 | 18.84219 | 34361 ft | 416 kts | 250° |
| 2026-05-04 08:52 | 52.97082 | 18.79717 | 34623 ft | 414 kts | 251° |
| 2026-05-04 08:52 | 52.96161 | 18.75206 | 34822 ft | 414 kts | 251° |
| 2026-05-04 08:52 | 52.95241 | 18.70715 | 35027 ft | 414 kts | 251° |
| 2026-05-04 08:53 | 52.94314 | 18.66207 | 35239 ft | 412 kts | 250° |
| 2026-05-04 08:54 | 52.87813 | 18.34992 | 35888 ft | 412 kts | 250° |
| 2026-05-04 08:55 | 52.85936 | 18.26084 | 35893 ft | 412 kts | 250° |
| 2026-05-04 08:55 | 52.84055 | 18.17168 | 35623 ft | 413 kts | 250° |
| 2026-05-04 08:57 | 52.77455 | 17.86100 | 33914 ft | 411 kts | 249° |
| 2026-05-04 09:01 | 52.63928 | 17.23843 | 35374 ft | 414 kts | 249° |
| 2026-05-04 09:01 | 52.62944 | 17.19372 | 35561 ft | 413 kts | 249° |
| 2026-05-04 09:01 | 52.61968 | 17.14954 | 35742 ft | 412 kts | 249° |
| 2026-05-04 09:01 | 52.60995 | 17.10563 | 35907 ft | 412 kts | 249° |
| 2026-05-04 09:02 | 52.60012 | 17.06144 | 36064 ft | 412 kts | 249° |
| 2026-05-04 09:02 | 52.59040 | 17.01786 | 36208 ft | 411 kts | 249° |
| 2026-05-04 09:02 | 52.58055 | 16.97367 | 36348 ft | 411 kts | 249° |
| 2026-05-04 09:02 | 52.57074 | 16.92981 | 36491 ft | 411 kts | 249° |
| 2026-05-04 09:03 | 52.56088 | 16.88584 | 36595 ft | 411 kts | 249° |
| 2026-05-04 09:03 | 52.55104 | 16.84202 | 36711 ft | 410 kts | 249° |
| 2026-05-04 09:03 | 52.54127 | 16.79862 | 36869 ft | 410 kts | 249° |
| 2026-05-04 09:03 | 52.53134 | 16.75460 | 37012 ft | 410 kts | 249° |
| 2026-05-04 09:04 | 52.52158 | 16.71142 | 37126 ft | 410 kts | 249° |
| 2026-05-04 09:04 | 52.51167 | 16.66766 | 37246 ft | 410 kts | 249° |
| 2026-05-04 09:04 | 52.50169 | 16.62374 | 37391 ft | 409 kts | 249° |
| 2026-05-04 09:04 | 52.49202 | 16.58125 | 37519 ft | 409 kts | 249° |
| 2026-05-04 09:05 | 52.48216 | 16.53798 | 37604 ft | 409 kts | 249° |
| 2026-05-04 09:05 | 52.47282 | 16.49709 | 37707 ft | 410 kts | 249° |
| 2026-05-04 09:05 | 52.46281 | 16.45335 | 37772 ft | 410 kts | 249° |
| 2026-05-04 09:05 | 52.45291 | 16.41015 | 37874 ft | 410 kts | 249° |
| 2026-05-04 09:06 | 52.44324 | 16.36809 | 37913 ft | 410 kts | 249° |
| 2026-05-04 09:08 | 52.36279 | 16.02061 | 37931 ft | 409 kts | 248° |
| 2026-05-04 09:08 | 52.34246 | 15.93385 | 37944 ft | 411 kts | 248° |
| 2026-05-04 09:09 | 52.32206 | 15.84710 | 37915 ft | 409 kts | 248° |
| 2026-05-04 09:09 | 52.30170 | 15.76097 | 37919 ft | 410 kts | 248° |
| 2026-05-04 09:10 | 52.28120 | 15.67447 | 37950 ft | 410 kts | 248° |
| 2026-05-04 09:10 | 52.26064 | 15.58808 | 37930 ft | 409 kts | 248° |
| 2026-05-04 09:11 | 52.23998 | 15.50166 | 37936 ft | 410 kts | 248° |
| 2026-05-04 09:11 | 52.21928 | 15.41544 | 37930 ft | 410 kts | 249° |
| 2026-05-04 09:12 | 52.19856 | 15.32940 | 37916 ft | 410 kts | 248° |
| 2026-05-04 09:14 | 52.11525 | 14.98641 | 37912 ft | 410 kts | 248° |
| 2026-05-04 09:14 | 52.09420 | 14.90076 | 37915 ft | 409 kts | 248° |
| 2026-05-04 09:15 | 52.07317 | 14.81558 | 37929 ft | 409 kts | 248° |
| 2026-05-04 09:15 | 52.05186 | 14.73052 | 37920 ft | 408 kts | 246° |
| 2026-05-04 09:17 | 51.94819 | 14.35329 | 37923 ft | 409 kts | 246° |
| 2026-05-04 09:18 | 51.92497 | 14.26920 | 37922 ft | 409 kts | 245° |
| 2026-05-04 09:18 | 51.90179 | 14.18550 | 37927 ft | 409 kts | 245° |
| 2026-05-04 09:19 | 51.87853 | 14.10270 | 37926 ft | 408 kts | 245° |
| 2026-05-04 09:19 | 51.85505 | 14.01949 | 37938 ft | 408 kts | 245° |
| 2026-05-04 09:20 | 51.83180 | 13.93693 | 37920 ft | 408 kts | 245° |
| 2026-05-04 09:20 | 51.80828 | 13.85350 | 37931 ft | 409 kts | 245° |
| 2026-05-04 09:21 | 51.78518 | 13.77181 | 37931 ft | 408 kts | 245° |
| 2026-05-04 09:21 | 51.76215 | 13.69059 | 37935 ft | 409 kts | 245° |
| 2026-05-04 09:22 | 51.73860 | 13.60785 | 37946 ft | 409 kts | 245° |
| 2026-05-04 09:22 | 51.71480 | 13.52449 | 37945 ft | 408 kts | 245° |
| 2026-05-04 09:23 | 51.69159 | 13.44351 | 37954 ft | 408 kts | 245° |
| 2026-05-04 09:23 | 51.66793 | 13.36120 | 37954 ft | 408 kts | 245° |
| 2026-05-04 09:25 | 51.58514 | 13.07499 | 36409 ft | 407 kts | 244° |
| 2026-05-04 09:25 | 51.57314 | 13.03384 | 36193 ft | 407 kts | 244° |
| 2026-05-04 09:26 | 51.56118 | 12.99293 | 35969 ft | 407 kts | 244° |
| 2026-05-04 09:26 | 51.54927 | 12.95221 | 35749 ft | 406 kts | 244° |
| 2026-05-04 09:26 | 51.53731 | 12.91137 | 35524 ft | 405 kts | 244° |
| 2026-05-04 09:26 | 51.52554 | 12.87131 | 35305 ft | 406 kts | 244° |
| 2026-05-04 09:27 | 51.51389 | 12.83171 | 35087 ft | 406 kts | 244° |
| 2026-05-04 09:27 | 51.50188 | 12.79094 | 34860 ft | 406 kts | 244° |
| 2026-05-04 09:27 | 51.49006 | 12.75091 | 34615 ft | 406 kts | 244° |
| 2026-05-04 09:27 | 51.47806 | 12.71038 | 34350 ft | 406 kts | 244° |
| 2026-05-04 09:28 | 51.46586 | 12.66915 | 34089 ft | 407 kts | 245° |
| 2026-05-04 09:28 | 51.45477 | 12.62758 | 33963 ft | 408 kts | 248° |
| 2026-05-04 09:28 | 51.43784 | 12.54146 | 33959 ft | 409 kts | 255° |
| 2026-05-04 09:29 | 51.42845 | 12.45577 | 33967 ft | 411 kts | 262° |
| 2026-05-04 09:29 | 51.42502 | 12.36489 | 33982 ft | 413 kts | 266° |
| 2026-05-04 09:30 | 51.42273 | 12.27389 | 33961 ft | 412 kts | 265° |
| 2026-05-04 09:30 | 51.42041 | 12.18408 | 33972 ft | 412 kts | 265° |
| 2026-05-04 09:31 | 51.41768 | 12.09293 | 33987 ft | 412 kts | 263° |
| 2026-05-04 09:31 | 51.40915 | 12.00301 | 33965 ft | 410 kts | 256° |
| 2026-05-04 09:32 | 51.39320 | 11.91752 | 33960 ft | 409 kts | 248° |
| 2026-05-04 09:34 | 51.29131 | 11.59598 | 33961 ft | 409 kts | 242° |
| 2026-05-04 09:34 | 51.26488 | 11.51621 | 33977 ft | 410 kts | 242° |
| 2026-05-04 09:35 | 51.23829 | 11.43641 | 33970 ft | 409 kts | 242° |
| 2026-05-04 09:35 | 51.21166 | 11.35674 | 33962 ft | 409 kts | 242° |
| 2026-05-04 09:37 | 51.10509 | 11.03998 | 33988 ft | 408 kts | 241° |
| 2026-05-04 09:38 | 51.07820 | 10.96091 | 33986 ft | 408 kts | 241° |
| 2026-05-04 09:38 | 51.05121 | 10.88175 | 34001 ft | 408 kts | 241° |
| 2026-05-04 09:39 | 51.02427 | 10.80304 | 34006 ft | 409 kts | 241° |
| 2026-05-04 09:39 | 50.99721 | 10.72411 | 33988 ft | 408 kts | 241° |
| 2026-05-04 09:40 | 50.97007 | 10.64509 | 33987 ft | 409 kts | 241° |
| 2026-05-04 09:40 | 50.94279 | 10.56595 | 33973 ft | 410 kts | 241° |
| 2026-05-04 09:42 | 50.76588 | 10.35206 | 33973 ft | 416 kts | 205° |
| 2026-05-04 09:43 | 50.71292 | 10.31618 | 33977 ft | 414 kts | 210° |
| 2026-05-04 09:43 | 50.66571 | 10.26536 | 33979 ft | 412 kts | 222° |
| 2026-05-04 09:44 | 50.62759 | 10.19901 | 33972 ft | 411 kts | 234° |
| 2026-05-04 09:46 | 50.52715 | 9.87880 | 33349 ft | 406 kts | 252° |
| 2026-05-04 09:46 | 50.51955 | 9.83743 | 32534 ft | 399 kts | 253° |
| 2026-05-04 09:46 | 50.51208 | 9.79580 | 30961 ft | 407 kts | 253° |
| 2026-05-04 09:47 | 50.50444 | 9.75323 | 29151 ft | 415 kts | 253° |
| 2026-05-04 09:47 | 50.49689 | 9.71026 | 27980 ft | 406 kts | 254° |
| 2026-05-04 09:49 | 50.44508 | 9.42357 | 26029 ft | 387 kts | 252° |
| 2026-05-04 09:49 | 50.43737 | 9.38306 | 25764 ft | 386 kts | 252° |
| 2026-05-04 09:49 | 50.42977 | 9.34309 | 25493 ft | 384 kts | 252° |
| 2026-05-04 09:51 | 50.37848 | 9.10498 | 21808 ft | 391 kts | 249° |
| 2026-05-04 09:51 | 50.36914 | 9.06481 | 21059 ft | 391 kts | 249° |
| 2026-05-04 09:51 | 50.35995 | 9.02525 | 20257 ft | 384 kts | 248° |
| 2026-05-04 09:51 | 50.35102 | 8.98692 | 19504 ft | 373 kts | 248° |
| 2026-05-04 09:52 | 50.34232 | 8.94964 | 18749 ft | 363 kts | 248° |
| 2026-05-04 09:52 | 50.33290 | 8.91418 | 17985 ft | 352 kts | 238° |
| 2026-05-04 09:52 | 50.31784 | 8.88507 | 17246 ft | 346 kts | 221° |
| 2026-05-04 09:52 | 50.29765 | 8.86476 | 16513 ft | 347 kts | 204° |
| 2026-05-04 09:53 | 50.27439 | 8.85502 | 15765 ft | 353 kts | 187° |
| 2026-05-04 09:53 | 50.25008 | 8.85691 | 15022 ft | 360 kts | 170° |
| 2026-05-04 09:53 | 50.22664 | 8.87107 | 14278 ft | 369 kts | 152° |
| 2026-05-04 09:53 | 50.20695 | 8.89672 | 13527 ft | 377 kts | 133° |
| 2026-05-04 09:54 | 50.19342 | 8.93198 | 12772 ft | 385 kts | 113° |
| 2026-05-04 09:54 | 50.18820 | 8.97306 | 12015 ft | 390 kts | 92° |
| 2026-05-04 09:54 | 50.19221 | 9.01446 | 11266 ft | 393 kts | 72° |
| 2026-05-04 09:54 | 50.20502 | 9.05135 | 10526 ft | 393 kts | 51° |
| 2026-05-04 09:55 | 50.22535 | 9.07947 | 9776 ft | 390 kts | 30° |
| 2026-05-04 09:55 | 50.24917 | 9.09835 | 9046 ft | 388 kts | 26° |
| 2026-05-04 09:55 | 50.27058 | 9.12345 | 8247 ft | 383 kts | 48° |
| 2026-05-04 09:55 | 50.28358 | 9.15792 | 7513 ft | 366 kts | 68° |
| 2026-05-04 09:56 | 50.28898 | 9.19551 | 6753 ft | 350 kts | 89° |
| 2026-05-04 09:56 | 50.28547 | 9.23193 | 6004 ft | 335 kts | 111° |
| 2026-05-04 09:56 | 50.27385 | 9.26187 | 5363 ft | 316 kts | 135° |
| 2026-05-04 09:56 | 50.25677 | 9.28011 | 5014 ft | 291 kts | 162° |
| 2026-05-04 09:57 | 50.23768 | 9.28410 | 4956 ft | 261 kts | 190° |
| 2026-05-04 09:57 | 50.22154 | 9.27430 | 4973 ft | 253 kts | 215° |
| 2026-05-04 09:57 | 50.20772 | 9.25709 | 4970 ft | 259 kts | 222° |
| 2026-05-04 09:57 | 50.19431 | 9.23814 | 4961 ft | 260 kts | 225° |
| 2026-05-04 09:58 | 50.18462 | 9.21493 | 4935 ft | 258 kts | 255° |
| 2026-05-04 09:58 | 50.18435 | 9.18736 | 4959 ft | 259 kts | 279° |
| 2026-05-04 09:58 | 50.18774 | 9.15947 | 4962 ft | 260 kts | 276° |
| 2026-05-04 10:00 | 50.15473 | 8.99084 | 4951 ft | 229 kts | 252° |
| 2026-05-04 10:00 | 50.14993 | 8.96734 | 4955 ft | 230 kts | 252° |
| 2026-05-04 10:02 | 50.11407 | 8.81619 | 4393 ft | 195 kts | 249° |
| 2026-05-04 10:04 | 50.08425 | 8.69355 | 2598 ft | 152 kts | 248° |
| 2026-05-04 10:04 | 50.08056 | 8.67824 | 2390 ft | 152 kts | 248° |
| 2026-05-04 10:04 | 50.07686 | 8.66289 | 2219 ft | 150 kts | 248° |
| 2026-05-04 10:04 | 50.07325 | 8.64791 | 1997 ft | 147 kts | 248° |
| 2026-05-04 10:05 | 50.06969 | 8.63310 | 1792 ft | 147 kts | 248° |
| 2026-05-04 10:05 | 50.06612 | 8.61824 | 1584 ft | 146 kts | 248° |
| 2026-05-04 10:05 | 50.06258 | 8.60353 | 1380 ft | 146 kts | 248° |
| 2026-05-04 10:05 | 50.05907 | 8.58893 | 1178 ft | 146 kts | 248° |
| 2026-05-04 10:06 | 50.05552 | 8.57418 | 970 ft | 146 kts | 249° |
| 2026-05-04 10:06 | 50.05195 | 8.55928 | 760 ft | 146 kts | 249° |
| 2026-05-04 10:06 | 50.04845 | 8.54465 | 548 ft | 145 kts | 249° |
| 2026-05-04 10:08 | 50.03719 | 8.50223 | 338 ft | 2 kts | 220° |
| 2026-05-04 10:08 | 50.03713 | 8.50215 | 338 ft | 2 kts | 219° |
| 2026-05-04 10:08 | 50.03693 | 8.50189 | 337 ft | 5 kts | 219° |
| 2026-05-04 10:08 | 50.03659 | 8.50146 | 336 ft | 7 kts | 220° |
| 2026-05-04 10:09 | 50.03626 | 8.50104 | 336 ft | 2 kts | 213° |
| 2026-05-04 10:09 | 50.03619 | 8.50107 | 336 ft | 1 kts | 144° |
| 2026-05-04 10:09 | 50.03605 | 8.50169 | 337 ft | 15 kts | 83° |
| 2026-05-04 10:09 | 50.03652 | 8.50386 | 342 ft | 23 kts | 70° |
| 2026-05-04 10:10 | 50.03712 | 8.50637 | 349 ft | 26 kts | 70° |
| 2026-05-04 10:10 | 50.03779 | 8.50916 | 355 ft | 29 kts | 69° |
| 2026-05-04 10:10 | 50.03854 | 8.51230 | 357 ft | 33 kts | 70° |
| 2026-05-04 10:10 | 50.03938 | 8.51584 | 357 ft | 37 kts | 70° |
| 2026-05-04 10:11 | 50.04031 | 8.51968 | 354 ft | 36 kts | 70° |
| 2026-05-04 10:11 | 50.04120 | 8.52345 | 355 ft | 37 kts | 69° |
| 2026-05-04 10:11 | 50.04210 | 8.52712 | 357 ft | 36 kts | 70° |
| 2026-05-04 10:11 | 50.04298 | 8.53084 | 351 ft | 38 kts | 70° |
| 2026-05-04 10:12 | 50.04391 | 8.53479 | 350 ft | 38 kts | 75° |
| 2026-05-04 10:12 | 50.04416 | 8.53814 | 352 ft | 30 kts | 85° |
| 2026-05-04 10:12 | 50.04439 | 8.54132 | 353 ft | 29 kts | 84° |
| 2026-05-04 10:12 | 50.04454 | 8.54450 | 350 ft | 27 kts | 94° |
| 2026-05-04 10:13 | 50.04377 | 8.54703 | 351 ft | 24 kts | 137° |
| 2026-05-04 10:13 | 50.04242 | 8.54813 | 351 ft | 18 kts | 162° |
| 2026-05-04 10:13 | 50.04138 | 8.54865 | 349 ft | 6 kts | 161° |
| 2026-05-04 10:13 | 50.04089 | 8.54893 | 348 ft | 8 kts | 160° |
| 2026-05-04 10:14 | 50.04068 | 8.54906 | 348 ft | 0 kts | 158° |
| 2026-05-04 10:14 | 50.04059 | 8.54912 | 348 ft | 2 kts | 158° |
| 2026-05-04 10:16 | 50.03980 | 8.55663 | 349 ft | 23 kts | 70° |
| 2026-05-04 10:16 | 50.04040 | 8.55919 | 350 ft | 26 kts | 70° |
| 2026-05-04 10:16 | 50.04105 | 8.56196 | 354 ft | 27 kts | 70° |
| 2026-05-04 10:16 | 50.04157 | 8.56413 | 356 ft | 8 kts | 70° |
| 2026-05-04 10:17 | 50.04178 | 8.56498 | 357 ft | 10 kts | 70° |
| 2026-05-04 10:17 | 50.04207 | 8.56621 | 358 ft | 14 kts | 70° |
| 2026-05-04 10:19 | 50.04515 | 8.57909 | 371 ft | 8 kts | 69° |
| 2026-05-04 10:19 | 50.04534 | 8.57985 | 372 ft | 6 kts | 69° |
| 2026-05-04 10:19 | 50.04551 | 8.58056 | 373 ft | 7 kts | 69° |
| 2026-05-04 10:19 | 50.04572 | 8.58137 | 374 ft | 8 kts | 69° |
| 2026-05-04 10:20 | 50.04592 | 8.58222 | 375 ft | 9 kts | 69° |
| 2026-05-04 10:20 | 50.04619 | 8.58333 | 375 ft | 12 kts | 70° |
| 2026-05-04 10:20 | 50.04656 | 8.58492 | 370 ft | 18 kts | 71° |
| 2026-05-04 10:20 | 50.04695 | 8.58665 | 363 ft | 15 kts | 69° |
| 2026-05-04 10:21 | 50.04731 | 8.58744 | 361 ft | 0 kts | 26° |
| 2026-05-04 10:21 | 50.04784 | 8.58745 | 363 ft | 13 kts | 344° |
| 2026-05-04 10:21 | 50.04847 | 8.58710 | 366 ft | 5 kts | 340° |
| 2026-05-04 10:21 | 50.04845 | 8.58711 | 366 ft | 1 kts | 340° |
| 2026-05-04 10:22 | 50.04844 | 8.58712 | 366 ft | 0 kts | 340° |
| 2026-05-04 10:23 | 50.04843 | 8.58712 | 366 ft | 0 kts | 340° |
| 2026-05-04 10:25 | 50.05016 | 8.58655 | 377 ft | 5 kts | 340° |
| 2026-05-04 10:25 | 50.05043 | 8.58640 | 378 ft | 0 kts | 340° |